createdAt,value
2023-01-18T00:00:34.122Z,0.30
2023-01-18T00:03:02.093Z,0.30
2023-01-18T00:05:30.012Z,0.30
2023-01-18T00:07:58.002Z,0.30
2023-01-18T00:10:27.347Z,0.20
2023-01-18T00:12:55.561Z,0.20
2023-01-18T00:15:23.759Z,0.20
2023-01-18T00:17:52.576Z,0.20
2023-01-18T00:20:22.981Z,0.20
2023-01-18T00:22:51.554Z,0.20
2023-01-18T00:25:20.453Z,0.20
2023-01-18T00:27:51.417Z,0.20
2023-01-18T00:30:21.697Z,0.20
2023-01-18T00:32:50.181Z,0.20
2023-01-18T00:35:22.203Z,0.20
2023-01-18T00:37:51.622Z,0.20
2023-01-18T00:40:20.323Z,0.20
2023-01-18T00:43:07.044Z,0.20
2023-01-18T00:45:35.095Z,0.20
2023-01-18T00:48:03.435Z,0.20
2023-01-18T00:50:31.646Z,0.20
2023-01-18T00:53:00.455Z,0.10
2023-01-18T00:55:28.834Z,0.10
2023-01-18T00:57:58.154Z,0.10
2023-01-18T01:00:27.066Z,0.10
2023-01-18T01:02:55.474Z,0.20
2023-01-18T01:05:43.890Z,0.20
2023-01-18T01:08:17.429Z,0.20
2023-01-18T01:10:46.512Z,0.10
2023-01-18T01:13:35.427Z,0.10
2023-01-18T01:16:24.194Z,0.10
2023-01-18T01:19:10.047Z,0.10
2023-01-18T01:21:55.659Z,0.10
2023-01-18T01:24:41.088Z,0.10
2023-01-18T01:27:10.622Z,0.10
2023-01-18T01:29:40.435Z,0.10
2023-01-18T01:32:08.470Z,0.10
2023-01-18T01:34:36.978Z,0.10
2023-01-18T01:37:05.512Z,0.10
2023-01-18T01:39:33.443Z,0.10
2023-01-18T01:42:01.376Z,0.10
2023-01-18T01:44:51.351Z,0.10
2023-01-18T01:47:37.733Z,0.00
2023-01-18T01:50:18.482Z,0.00
2023-01-18T01:52:47.923Z,0.00
2023-01-18T01:55:22.967Z,0.00
2023-01-18T01:57:56.460Z,0.00
2023-01-18T02:00:26.228Z,0.00
2023-01-18T02:02:58.002Z,0.00
2023-01-18T02:05:26.776Z,0.00
2023-01-18T02:07:55.316Z,0.00
2023-01-18T02:10:23.291Z,0.00
2023-01-18T02:12:54.691Z,0.00
2023-01-18T02:15:28.518Z,0.00
2023-01-18T02:18:15.169Z,0.00
2023-01-18T02:21:11.487Z,0.00
2023-01-18T02:24:11.764Z,0.00
2023-01-18T02:27:00.170Z,0.00
2023-01-18T02:29:59.458Z,0.00
2023-01-18T02:32:53.835Z,0.00
2023-01-18T02:35:29.746Z,0.00
2023-01-18T02:38:06.569Z,-0.10
2023-01-18T02:40:47.350Z,-0.10
2023-01-18T02:43:34.534Z,-0.10
2023-01-18T02:46:23.478Z,0.00
2023-01-18T02:48:52.439Z,0.00
2023-01-18T02:51:20.359Z,0.00
2023-01-18T02:53:48.966Z,0.00
2023-01-18T02:56:22.598Z,0.00
2023-01-18T02:58:54.771Z,0.00
2023-01-18T03:01:29.092Z,0.00
2023-01-18T03:04:00.283Z,0.00
2023-01-18T03:06:30.692Z,0.00
2023-01-18T03:09:00.919Z,0.00
2023-01-18T03:11:37.616Z,0.00
2023-01-18T03:14:15.385Z,0.00
2023-01-18T03:16:58.938Z,0.00
2023-01-18T03:19:55.879Z,0.00
2023-01-18T03:22:46.591Z,0.10
2023-01-18T03:25:17.080Z,0.10
2023-01-18T03:28:05.878Z,0.10
2023-01-18T03:30:53.108Z,0.10
2023-01-18T03:33:45.063Z,0.10
2023-01-18T03:36:18.836Z,0.10
2023-01-18T03:38:49.633Z,0.10
2023-01-18T03:41:19.633Z,0.10
2023-01-18T03:43:51.080Z,0.00
2023-01-18T03:46:20.368Z,0.10
2023-01-18T03:48:49.767Z,0.10
2023-01-18T03:51:24.722Z,0.10
2023-01-18T03:54:01.385Z,0.00
2023-01-18T03:56:34.141Z,0.10
2023-01-18T03:59:05.691Z,0.00
2023-01-18T04:01:33.822Z,0.80
2023-01-18T04:04:03.577Z,0.10
2023-01-18T04:06:33.253Z,0.10
2023-01-18T04:09:01.191Z,0.00
2023-01-18T04:11:29.141Z,0.10
2023-01-18T04:13:57.130Z,0.10
2023-01-18T04:16:25.280Z,0.10
2023-01-18T04:18:53.461Z,0.00
2023-01-18T04:21:22.854Z,0.00
2023-01-18T04:23:50.869Z,0.10
2023-01-18T04:26:19.363Z,0.10
2023-01-18T04:28:47.315Z,0.10
2023-01-18T04:31:15.412Z,0.00
2023-01-18T04:33:43.368Z,0.00
2023-01-18T04:36:11.388Z,0.00
2023-01-18T04:38:40.740Z,0.00
2023-01-18T04:41:08.913Z,0.00
2023-01-18T04:43:36.805Z,0.00
2023-01-18T04:46:05.140Z,0.00
2023-01-18T04:48:33.080Z,0.00
2023-01-18T04:51:01.006Z,0.00
2023-01-18T04:53:29.020Z,0.10
2023-01-18T04:55:58.856Z,0.10
2023-01-18T04:58:26.784Z,0.10
2023-01-18T05:00:54.784Z,0.20
2023-01-18T05:03:22.734Z,0.20
2023-01-18T05:05:50.682Z,0.20
2023-01-18T05:08:18.818Z,0.20
2023-01-18T05:10:46.963Z,0.20
2023-01-18T05:13:16.244Z,0.20
2023-01-18T05:15:44.181Z,0.20
2023-01-18T05:18:12.389Z,0.20
2023-01-18T05:20:40.338Z,0.10
2023-01-18T05:23:11.059Z,0.10
2023-01-18T05:25:40.238Z,0.10
2023-01-18T05:28:09.164Z,0.10
2023-01-18T05:30:42.311Z,0.10
2023-01-18T05:33:10.825Z,0.20
2023-01-18T05:35:38.764Z,0.20
2023-01-18T05:38:06.690Z,0.20
2023-01-18T05:40:34.630Z,0.30
2023-01-18T05:43:02.594Z,0.30
2023-01-18T05:45:30.564Z,0.30
2023-01-18T05:48:00.000Z,0.30
2023-01-18T05:50:28.075Z,0.30
2023-01-18T05:52:57.990Z,0.20
2023-01-18T05:55:26.170Z,0.30
2023-01-18T05:57:54.201Z,0.20
2023-01-18T06:00:22.899Z,0.20
2023-01-18T06:02:50.827Z,0.20
2023-01-18T06:05:20.765Z,0.20
2023-01-18T06:07:49.000Z,0.20
2023-01-18T06:10:17.796Z,0.20
2023-01-18T06:12:46.242Z,0.20
2023-01-18T06:15:15.725Z,0.20
2023-01-18T06:17:45.932Z,0.20
2023-01-18T06:20:14.946Z,0.20
2023-01-18T06:22:45.614Z,0.20
2023-01-18T06:25:13.646Z,0.20
2023-01-18T06:27:42.122Z,0.20
2023-01-18T06:30:11.976Z,0.30
2023-01-18T06:32:39.907Z,0.30
2023-01-18T06:35:08.693Z,0.30
2023-01-18T06:37:36.642Z,0.30
2023-01-18T06:40:07.503Z,0.30
2023-01-18T06:42:35.555Z,0.30
2023-01-18T06:45:03.646Z,0.30
2023-01-18T06:47:31.599Z,0.30
2023-01-18T06:49:59.553Z,0.30
2023-01-18T06:52:27.656Z,0.30
2023-01-18T06:54:55.617Z,0.20
2023-01-18T06:57:24.931Z,0.30
2023-01-18T06:59:53.447Z,0.30
2023-01-18T07:02:21.815Z,0.30
2023-01-18T07:04:49.761Z,0.30
2023-01-18T07:07:17.741Z,0.30
2023-01-18T07:09:45.679Z,0.40
2023-01-18T07:12:13.603Z,0.30
2023-01-18T07:14:43.287Z,0.40
2023-01-18T07:17:11.482Z,0.40
2023-01-18T07:19:39.415Z,0.40
2023-01-18T07:22:07.608Z,0.40
2023-01-18T07:24:35.783Z,0.40
2023-01-18T07:27:03.754Z,0.40
2023-01-18T07:29:31.996Z,0.40
2023-01-18T07:32:02.473Z,0.40
2023-01-18T07:34:30.435Z,0.40
2023-01-18T07:36:58.463Z,0.40
2023-01-18T07:39:26.381Z,0.40
2023-01-18T07:41:54.278Z,0.40
2023-01-18T07:44:22.197Z,0.40
2023-01-18T07:46:50.133Z,0.50
2023-01-18T07:49:19.549Z,0.50
2023-01-18T07:51:47.598Z,0.50
2023-01-18T07:54:17.102Z,0.50
2023-01-18T07:56:45.048Z,0.50
2023-01-18T07:59:12.996Z,0.50
2023-01-18T08:01:41.000Z,0.50
2023-01-18T08:04:09.354Z,0.60
2023-01-18T08:06:38.641Z,0.60
2023-01-18T08:09:06.793Z,0.60
2023-01-18T08:11:34.720Z,0.60
2023-01-18T08:14:02.654Z,0.60
2023-01-18T08:16:30.737Z,0.70
2023-01-18T08:18:58.653Z,0.70
2023-01-18T08:21:26.556Z,0.70
2023-01-18T08:23:56.101Z,0.70
2023-01-18T08:26:24.027Z,0.70
2023-01-18T08:28:51.950Z,0.70
2023-01-18T08:31:21.779Z,0.70
2023-01-18T08:33:51.019Z,0.80
2023-01-18T08:36:22.135Z,0.80
2023-01-18T08:38:51.273Z,0.80
2023-01-18T08:41:21.469Z,0.80
2023-01-18T08:43:50.955Z,0.90
2023-01-18T08:46:19.284Z,0.90
2023-01-18T08:48:50.420Z,1.00
2023-01-18T08:51:19.115Z,1.00
2023-01-18T08:53:48.380Z,1.00
2023-01-18T08:56:16.392Z,1.10
2023-01-18T08:58:46.185Z,1.10
2023-01-18T09:01:14.678Z,1.10
2023-01-18T09:03:43.109Z,1.10
2023-01-18T09:06:13.006Z,1.20
2023-01-18T09:08:41.242Z,1.20
2023-01-18T09:11:11.789Z,1.20
2023-01-18T09:13:58.553Z,1.20
2023-01-18T09:16:29.365Z,1.30
2023-01-18T09:18:58.403Z,1.30
2023-01-18T09:21:28.108Z,1.30
2023-01-18T09:23:56.085Z,1.30
2023-01-18T09:26:24.022Z,1.30
2023-01-18T09:28:54.219Z,1.40
2023-01-18T09:31:24.375Z,1.40
2023-01-18T09:33:54.402Z,1.50
2023-01-18T09:36:26.768Z,1.50
2023-01-18T09:38:55.931Z,1.50
2023-01-18T09:41:32.043Z,1.60
2023-01-18T09:44:03.480Z,1.60
2023-01-18T09:46:37.093Z,1.70
2023-01-18T09:49:16.250Z,1.70
2023-01-18T09:51:53.630Z,1.80
2023-01-18T09:54:33.555Z,1.80
2023-01-18T09:57:08.767Z,1.90
2023-01-18T09:59:43.054Z,2.00
2023-01-18T10:02:18.616Z,2.00
2023-01-18T10:04:53.542Z,2.10
2023-01-18T10:07:23.291Z,2.10
2023-01-18T10:09:55.323Z,2.20
2023-01-18T10:12:31.002Z,2.20
2023-01-18T10:15:03.466Z,2.20
2023-01-18T10:17:36.771Z,2.30
2023-01-18T10:20:14.967Z,2.30
2023-01-18T10:22:50.860Z,2.30
2023-01-18T10:25:31.836Z,2.30
2023-01-18T10:28:26.611Z,2.30
2023-01-18T10:31:03.790Z,2.30
2023-01-18T10:33:37.473Z,2.40
2023-01-18T10:36:12.842Z,2.40
2023-01-18T10:38:41.933Z,2.40
2023-01-18T10:41:19.098Z,2.40
2023-01-18T10:43:47.248Z,2.40
2023-01-18T10:46:17.386Z,2.40
2023-01-18T10:48:47.549Z,2.40
2023-01-18T10:51:30.234Z,2.40
2023-01-18T10:53:58.537Z,2.40
2023-01-18T10:56:28.130Z,2.40
2023-01-18T10:58:58.783Z,2.40
2023-01-18T11:01:28.632Z,2.40
2023-01-18T11:04:05.913Z,2.40
2023-01-18T11:06:46.658Z,2.40
2023-01-18T11:09:41.032Z,2.40
2023-01-18T11:12:37.290Z,2.40
2023-01-18T11:15:25.375Z,2.40
2023-01-18T11:18:12.039Z,2.50
2023-01-18T11:20:46.221Z,2.50
2023-01-18T11:23:25.372Z,2.40
2023-01-18T11:26:00.707Z,2.40
2023-01-18T11:28:34.720Z,2.40
2023-01-18T11:31:09.436Z,2.40
2023-01-18T11:33:43.055Z,2.50
2023-01-18T11:36:11.062Z,2.50
2023-01-18T11:38:41.487Z,2.50
2023-01-18T11:41:16.252Z,2.50
2023-01-18T11:43:56.145Z,2.50
2023-01-18T11:46:44.367Z,2.60
2023-01-18T11:49:27.014Z,2.60
2023-01-18T11:52:02.055Z,2.60
2023-01-18T11:54:37.659Z,2.70
2023-01-18T11:57:10.202Z,2.60
2023-01-18T11:59:41.829Z,2.60
2023-01-18T12:02:37.452Z,2.60
2023-01-18T12:05:22.582Z,2.60
2023-01-18T12:08:01.026Z,2.60
2023-01-18T12:10:42.877Z,2.60
2023-01-18T12:13:29.932Z,2.60
2023-01-18T12:16:08.126Z,2.60
2023-01-18T12:19:01.967Z,2.60
2023-01-18T12:21:41.032Z,2.60
2023-01-18T12:24:34.759Z,2.60
2023-01-18T12:27:13.378Z,2.60
2023-01-18T12:30:01.902Z,2.60
2023-01-18T12:32:50.322Z,2.60
2023-01-18T12:35:30.522Z,2.60
2023-01-18T12:38:05.790Z,2.60
2023-01-18T12:40:45.141Z,2.50
2023-01-18T12:43:31.169Z,2.50
2023-01-18T12:46:06.991Z,2.50
2023-01-18T12:48:42.635Z,2.50
2023-01-18T12:51:15.388Z,2.50
2023-01-18T12:53:46.243Z,2.50
2023-01-18T12:56:18.109Z,2.50
2023-01-18T12:58:52.745Z,2.50
2023-01-18T13:01:22.616Z,2.50
2023-01-18T13:03:54.140Z,2.50
2023-01-18T13:06:22.583Z,2.50
2023-01-18T13:08:59.607Z,2.50
2023-01-18T13:11:31.497Z,2.50
2023-01-18T13:14:11.156Z,2.50
2023-01-18T13:16:47.056Z,2.50
2023-01-18T13:19:20.425Z,2.50
2023-01-18T13:22:00.147Z,2.50
2023-01-18T13:24:44.467Z,2.50
2023-01-18T13:27:15.014Z,2.50
2023-01-18T13:29:45.013Z,2.50
2023-01-18T13:32:30.340Z,2.50
2023-01-18T13:35:18.623Z,2.50
2023-01-18T13:37:50.304Z,2.50
2023-01-18T13:40:24.200Z,2.50
2023-01-18T13:42:52.495Z,2.50
2023-01-18T13:45:23.664Z,2.50
2023-01-18T13:48:01.041Z,2.50
2023-01-18T13:50:57.432Z,2.50
2023-01-18T13:53:26.921Z,2.40
2023-01-18T13:56:34.444Z,2.40
2023-01-18T13:59:05.548Z,2.40
2023-01-18T14:01:38.458Z,2.40
2023-01-18T14:04:16.241Z,2.40
2023-01-18T14:06:46.577Z,2.40
2023-01-18T14:09:18.350Z,2.40
2023-01-18T14:11:53.554Z,2.40
2023-01-18T14:14:27.644Z,2.40
2023-01-18T14:17:00.076Z,2.40
2023-01-18T14:19:29.450Z,2.40
2023-01-18T14:22:27.053Z,2.40
2023-01-18T14:25:22.053Z,2.40
2023-01-18T14:27:59.573Z,2.40
2023-01-18T14:30:30.728Z,2.40
2023-01-18T14:33:03.716Z,2.40
2023-01-18T14:35:31.775Z,2.30
2023-01-18T14:38:17.415Z,2.30
2023-01-18T14:40:48.483Z,2.30
2023-01-18T14:43:22.480Z,2.30
2023-01-18T14:45:57.494Z,2.30
2023-01-18T14:48:27.730Z,2.30
2023-01-18T14:50:56.729Z,2.30
2023-01-18T14:53:28.018Z,2.30
2023-01-18T14:56:09.293Z,2.30
2023-01-18T14:58:40.451Z,2.30
2023-01-18T15:01:10.271Z,2.30
2023-01-18T15:03:39.810Z,2.30
2023-01-18T15:06:14.437Z,2.30
2023-01-18T15:08:44.797Z,2.20
2023-01-18T15:11:13.602Z,2.20
2023-01-18T15:13:49.507Z,2.20
2023-01-18T15:16:21.288Z,2.20
2023-01-18T15:18:52.678Z,2.20
2023-01-18T15:21:23.786Z,2.20
2023-01-18T15:23:53.701Z,2.20
2023-01-18T15:26:36.250Z,2.20
2023-01-18T15:29:13.766Z,2.20
2023-01-18T15:31:54.660Z,2.20
2023-01-18T15:34:29.548Z,2.10
2023-01-18T15:36:59.563Z,2.10
2023-01-18T15:39:28.206Z,2.10
2023-01-18T15:41:58.007Z,2.10
2023-01-18T15:44:41.824Z,2.10
2023-01-18T15:47:18.128Z,2.10
2023-01-18T15:49:49.671Z,2.10
2023-01-18T15:52:34.818Z,2.10
2023-01-18T15:55:06.649Z,2.10
2023-01-18T15:57:36.465Z,2.10
2023-01-18T16:00:06.063Z,2.10
2023-01-18T16:02:34.159Z,2.10
2023-01-18T16:05:22.226Z,2.00
2023-01-18T16:07:53.279Z,2.10
2023-01-18T16:10:30.631Z,2.10
2023-01-18T16:13:37.324Z,2.10
2023-01-18T16:16:18.766Z,2.10
2023-01-18T16:18:49.435Z,2.10
2023-01-18T16:21:27.508Z,2.10
2023-01-18T16:23:57.786Z,2.10
2023-01-18T16:26:30.310Z,2.10
2023-01-18T16:29:07.601Z,2.10
2023-01-18T16:31:36.391Z,2.10
2023-01-18T16:34:20.261Z,2.10
2023-01-18T16:36:50.372Z,2.10
2023-01-18T16:39:18.919Z,2.10
2023-01-18T16:41:53.607Z,2.20
2023-01-18T16:44:22.040Z,2.10
2023-01-18T16:46:50.652Z,2.10
2023-01-18T16:49:18.615Z,2.10
2023-01-18T16:51:47.512Z,2.10
2023-01-18T16:54:16.782Z,2.10
2023-01-18T16:56:45.998Z,2.10
2023-01-18T16:59:17.915Z,2.10
2023-01-18T17:01:46.767Z,2.10
2023-01-18T17:04:15.104Z,2.10
2023-01-18T17:06:44.170Z,2.10
2023-01-18T17:09:20.371Z,2.10
2023-01-18T17:11:48.437Z,2.10
2023-01-18T17:14:16.444Z,2.00
2023-01-18T17:16:45.251Z,2.00
2023-01-18T17:19:14.528Z,2.00
2023-01-18T17:21:43.721Z,2.00
2023-01-18T17:24:12.836Z,2.00
2023-01-18T17:26:42.820Z,2.00
2023-01-18T17:29:17.459Z,2.00
2023-01-18T17:31:52.177Z,2.00
2023-01-18T17:34:27.268Z,2.00
2023-01-18T17:36:57.389Z,2.00
2023-01-18T17:39:32.160Z,2.00
2023-01-18T17:42:18.974Z,2.00
2023-01-18T17:45:02.304Z,2.00
2023-01-18T17:47:30.541Z,2.00
2023-01-18T17:49:58.501Z,2.00
2023-01-18T17:52:27.299Z,2.00
2023-01-18T17:54:55.255Z,1.90
2023-01-18T17:57:24.560Z,1.90
2023-01-18T17:59:55.667Z,1.90
2023-01-18T18:02:24.385Z,1.90
2023-01-18T18:04:52.670Z,1.90
2023-01-18T18:07:20.627Z,1.90
2023-01-18T18:09:48.536Z,1.90
2023-01-18T18:12:16.497Z,1.80
2023-01-18T18:14:45.779Z,1.80
2023-01-18T18:17:13.735Z,1.80
2023-01-18T18:19:41.688Z,1.70
2023-01-18T18:22:09.703Z,1.70
2023-01-18T18:24:37.599Z,1.70
2023-01-18T18:27:05.640Z,1.70
2023-01-18T18:29:33.661Z,1.70
2023-01-18T18:32:05.314Z,1.60
2023-01-18T18:34:33.365Z,1.60
2023-01-18T18:37:01.496Z,1.60
2023-01-18T18:39:29.398Z,1.60
2023-01-18T18:41:57.588Z,1.60
2023-01-18T18:44:25.572Z,1.60
2023-01-18T18:46:53.502Z,1.50
2023-01-18T18:49:22.796Z,1.60
2023-01-18T18:51:50.821Z,1.60
2023-01-18T18:54:18.776Z,1.60
2023-01-18T18:56:46.961Z,1.60
2023-01-18T18:59:14.929Z,1.60
2023-01-18T19:01:42.924Z,1.60
2023-01-18T19:04:11.085Z,1.70
2023-01-18T19:06:40.636Z,1.70
2023-01-18T19:09:08.554Z,1.70
2023-01-18T19:11:39.458Z,1.70
2023-01-18T19:14:07.609Z,1.70
2023-01-18T19:16:36.845Z,1.70
2023-01-18T19:19:04.925Z,1.70
2023-01-18T19:21:33.524Z,1.70
2023-01-18T19:24:02.855Z,1.70
2023-01-18T19:26:30.872Z,1.80
2023-01-18T19:28:58.809Z,1.80
2023-01-18T19:31:26.895Z,1.80
2023-01-18T19:33:56.364Z,1.80
2023-01-18T19:36:24.313Z,1.80
2023-01-18T19:38:59.350Z,1.80
2023-01-18T19:41:30.536Z,1.80
2023-01-18T19:43:58.492Z,1.80
2023-01-18T19:46:26.684Z,1.80
2023-01-18T19:48:58.204Z,1.80
2023-01-18T19:51:27.276Z,1.80
2023-01-18T19:53:56.317Z,1.80
2023-01-18T19:56:25.699Z,1.80
2023-01-18T19:58:55.026Z,1.80
2023-01-18T20:01:35.865Z,1.80
2023-01-18T20:04:05.184Z,1.80
2023-01-18T20:06:33.252Z,1.80
2023-01-18T20:09:01.252Z,1.80
2023-01-18T20:11:29.718Z,1.80
2023-01-18T20:13:58.982Z,1.80
2023-01-18T20:16:28.359Z,1.80
2023-01-18T20:18:56.352Z,1.80
2023-01-18T20:21:24.609Z,1.90
2023-01-18T20:23:55.947Z,1.80
2023-01-18T20:26:35.090Z,1.80
2023-01-18T20:29:06.720Z,1.80
2023-01-18T20:31:36.245Z,1.80
2023-01-18T20:34:04.780Z,1.80
2023-01-18T20:36:34.802Z,1.80
2023-01-18T20:39:03.511Z,1.80
2023-01-18T20:41:31.630Z,1.90
2023-01-18T20:43:59.570Z,1.80
2023-01-18T20:46:29.043Z,1.80
2023-01-18T20:48:56.975Z,1.80
2023-01-18T20:51:24.904Z,1.90
2023-01-18T20:53:52.862Z,1.90
2023-01-18T20:56:29.348Z,1.90
2023-01-18T20:58:57.946Z,1.90
2023-01-18T21:01:31.640Z,1.90
2023-01-18T21:04:02.352Z,1.80
2023-01-18T21:06:31.348Z,1.80
2023-01-18T21:09:01.211Z,1.80
2023-01-18T21:11:29.543Z,1.70
2023-01-18T21:14:00.052Z,1.70
2023-01-18T21:16:28.610Z,1.70
2023-01-18T21:18:58.714Z,1.70
2023-01-18T21:21:31.680Z,1.70
2023-01-18T21:24:00.218Z,1.70
2023-01-18T21:26:28.375Z,1.70
2023-01-18T21:28:56.721Z,1.70
2023-01-18T21:31:24.694Z,1.70
2023-01-18T21:33:52.910Z,1.60
2023-01-18T21:36:22.867Z,1.60
2023-01-18T21:38:52.488Z,1.60
2023-01-18T21:41:38.078Z,1.60
2023-01-18T21:44:24.203Z,1.50
2023-01-18T21:46:53.218Z,1.50
2023-01-18T21:50:01.182Z,1.50
2023-01-18T21:52:45.671Z,1.50
2023-01-18T21:55:16.330Z,1.50
2023-01-18T21:57:44.392Z,1.60
2023-01-18T22:00:13.566Z,1.50
2023-01-18T22:02:41.510Z,1.50
2023-01-18T22:05:10.004Z,1.60
2023-01-18T22:07:37.948Z,1.60
2023-01-18T22:10:07.338Z,1.60
2023-01-18T22:12:39.074Z,1.60
2023-01-18T22:15:07.861Z,1.60
2023-01-18T22:17:35.815Z,1.60
2023-01-18T22:20:04.575Z,1.60
2023-01-18T22:22:32.507Z,1.60
2023-01-18T22:25:02.271Z,1.60
2023-01-18T22:27:30.409Z,1.60
2023-01-18T22:30:00.105Z,1.60
2023-01-18T22:32:28.053Z,1.70
2023-01-18T22:34:55.979Z,1.70
2023-01-18T22:37:26.006Z,1.70
2023-01-18T22:39:54.007Z,1.70
2023-01-18T22:42:22.000Z,1.70
2023-01-18T22:44:49.890Z,1.70
2023-01-18T22:47:19.160Z,1.70
2023-01-18T22:49:47.230Z,1.70
2023-01-18T22:52:15.173Z,1.70
2023-01-18T22:54:43.139Z,1.70
2023-01-18T22:57:11.266Z,1.70
2023-01-18T22:59:39.219Z,1.70
2023-01-18T23:02:07.171Z,1.70
2023-01-18T23:04:36.516Z,1.70
2023-01-18T23:07:04.585Z,1.70
2023-01-18T23:09:32.499Z,1.70
2023-01-18T23:12:00.417Z,1.70
2023-01-18T23:14:44.912Z,1.70
2023-01-18T23:17:31.906Z,1.70
2023-01-18T23:20:01.174Z,1.60
2023-01-18T23:22:29.146Z,1.60
2023-01-18T23:24:57.062Z,1.60
2023-01-18T23:27:25.050Z,1.50
2023-01-18T23:29:57.243Z,1.50
2023-01-18T23:32:28.007Z,1.50
2023-01-18T23:34:56.135Z,1.50
2023-01-18T23:37:26.126Z,1.50
2023-01-18T23:40:11.694Z,1.50
2023-01-18T23:42:57.410Z,1.50
2023-01-18T23:45:43.027Z,1.50
2023-01-18T23:48:30.910Z,1.50
2023-01-18T23:51:17.876Z,1.50
2023-01-18T23:54:05.017Z,1.50
2023-01-18T23:56:33.135Z,1.50
2023-01-18T23:59:01.266Z,1.50
